sensor_id;sensor_type;location;lat;lon;timestamp;pressure;altitude;pressure_sealevel;temperature;humidity
8451;BME280;4262;50.980;13.892;2023-02-04T05:02:54;50337.53;;;-142.97;22.61
8451;BME280;4262;50.980;13.892;2023-02-04T05:05:21;50355.09;;;-142.97;22.20
8451;BME280;4262;50.980;13.892;2023-02-04T05:07:49;50337.53;;;-142.97;22.45
8451;BME280;4262;50.980;13.892;2023-02-04T05:10:16;50378.47;;;-142.97;22.51
8451;BME280;4262;50.980;13.892;2023-02-04T05:12:42;50374.56;;;-142.97;23.54
8451;BME280;4262;50.980;13.892;2023-02-04T05:15:09;50362.88;;;-142.97;22.94
8451;BME280;4262;50.980;13.892;2023-02-04T05:17:37;50331.69;;;-142.97;22.18
8451;BME280;4262;50.980;13.892;2023-02-04T05:20:07;50345.34;;;-142.97;22.48
8451;BME280;4262;50.980;13.892;2023-02-04T05:22:35;50362.88;;;-142.97;22.57
8451;BME280;4262;50.980;13.892;2023-02-04T05:25:02;50325.84;;;-142.97;22.34
8451;BME280;4262;50.980;13.892;2023-02-04T05:27:29;50351.19;;;-142.97;22.49
8451;BME280;4262;50.980;13.892;2023-02-04T05:29:55;50362.88;;;-142.97;22.69
8451;BME280;4262;50.980;13.892;2023-02-04T05:32:22;50337.53;;;-142.97;22.59
8451;BME280;4262;50.980;13.892;2023-02-04T05:34:49;50376.53;;;-142.97;22.25
8451;BME280;4262;50.980;13.892;2023-02-04T05:37:18;50360.94;;;-142.97;22.70
8451;BME280;4262;50.980;13.892;2023-02-04T05:39:45;50339.47;;;-142.97;22.42
8451;BME280;4262;50.980;13.892;2023-02-04T05:42:12;50353.13;;;-142.97;22.47
8451;BME280;4262;50.980;13.892;2023-02-04T05:44:39;50366.78;;;-142.97;22.47
8451;BME280;4262;50.980;13.892;2023-02-04T05:47:07;50327.78;;;-142.97;22.47
8451;BME280;4262;50.980;13.892;2023-02-04T05:49:34;50355.09;;;-142.97;22.53
8451;BME280;4262;50.980;13.892;2023-02-04T05:52:03;50345.34;;;-142.97;22.26
8451;BME280;4262;50.980;13.892;2023-02-04T05:54:32;50333.63;;;-142.97;21.87
8451;BME280;4262;50.980;13.892;2023-02-04T05:57:00;50380.44;;;-142.97;22.03
8451;BME280;4262;50.980;13.892;2023-02-04T05:59:26;50357.03;;;-142.97;21.95
8451;BME280;4262;50.980;13.892;2023-02-04T06:01:53;50339.47;;;-142.97;22.06
8451;BME280;4262;50.980;13.892;2023-02-04T06:04:20;50347.28;;;-142.97;22.81
8451;BME280;4262;50.980;13.892;2023-02-04T06:06:48;50362.88;;;-142.97;23.31
8451;BME280;4262;50.980;13.892;2023-02-04T06:09:15;50364.81;;;-142.97;22.79
8451;BME280;4262;50.980;13.892;2023-02-04T06:11:43;50347.28;;;-142.97;22.90
8451;BME280;4262;50.980;13.892;2023-02-04T06:14:10;50347.28;;;-142.97;22.26
8451;BME280;4262;50.980;13.892;2023-02-04T06:16:38;50341.44;;;-142.97;22.18
8451;BME280;4262;50.980;13.892;2023-02-04T06:19:05;50325.84;;;-142.97;22.12
8451;BME280;4262;50.980;13.892;2023-02-04T06:21:33;50327.78;;;-142.97;22.38
8451;BME280;4262;50.980;13.892;2023-02-04T06:23:59;50349.22;;;-142.97;22.15
8451;BME280;4262;50.980;13.892;2023-02-04T06:26:26;50372.63;;;-142.97;22.88
8451;BME280;4262;50.980;13.892;2023-02-04T06:28:55;50358.97;;;-142.97;22.59
8451;BME280;4262;50.980;13.892;2023-02-04T06:31:21;50370.69;;;-142.97;22.86
8451;BME280;4262;50.980;13.892;2023-02-04T06:33:48;50360.94;;;-142.97;22.39
8451;BME280;4262;50.980;13.892;2023-02-04T06:36:17;50376.53;;;-142.97;22.55
8451;BME280;4262;50.980;13.892;2023-02-04T06:38:43;50368.72;;;-142.97;22.35
8451;BME280;4262;50.980;13.892;2023-02-04T06:41:10;50329.72;;;-142.97;21.98
8451;BME280;4262;50.980;13.892;2023-02-04T06:43:37;50341.44;;;-142.97;21.98
8451;BME280;4262;50.980;13.892;2023-02-04T06:46:05;50357.03;;;-142.97;21.91
8451;BME280;4262;50.980;13.892;2023-02-04T06:48:33;50337.53;;;-142.97;21.81
8451;BME280;4262;50.980;13.892;2023-02-04T06:51:02;50335.59;;;-142.97;21.46
8451;BME280;4262;50.980;13.892;2023-02-04T06:53:29;50341.44;;;-142.97;21.96
8451;BME280;4262;50.980;13.892;2023-02-04T06:55:56;50341.44;;;-142.97;21.88
8451;BME280;4262;50.980;13.892;2023-02-04T06:58:23;50366.78;;;-142.97;21.85
8451;BME280;4262;50.980;13.892;2023-02-04T07:00:49;50339.47;;;-142.97;22.02
8451;BME280;4262;50.980;13.892;2023-02-04T07:03:17;50327.78;;;-142.97;23.25
8451;BME280;4262;50.980;13.892;2023-02-04T07:05:44;50347.28;;;-142.97;22.62
8451;BME280;4262;50.980;13.892;2023-02-04T07:08:11;50347.28;;;-142.97;22.50
8451;BME280;4262;50.980;13.892;2023-02-04T07:10:38;50360.94;;;-142.97;22.32
8451;BME280;4262;50.980;13.892;2023-02-04T07:13:05;50362.88;;;-142.97;23.51
8451;BME280;4262;50.980;13.892;2023-02-04T07:15:31;50382.38;;;-142.97;23.09
8451;BME280;4262;50.980;13.892;2023-02-04T07:17:59;50327.78;;;-142.97;23.25
8451;BME280;4262;50.980;13.892;2023-02-04T07:20:28;50343.38;;;-142.97;22.53
8451;BME280;4262;50.980;13.892;2023-02-04T07:22:55;50357.03;;;-142.97;23.24
8451;BME280;4262;50.980;13.892;2023-02-04T07:25:21;50358.97;;;-142.97;23.36
8451;BME280;4262;50.980;13.892;2023-02-04T07:27:49;50327.78;;;-142.97;23.56
8451;BME280;4262;50.980;13.892;2023-02-04T07:30:16;50337.53;;;-142.97;22.93
8451;BME280;4262;50.980;13.892;2023-02-04T07:32:43;50325.84;;;-142.97;23.13
8451;BME280;4262;50.980;13.892;2023-02-04T07:35:10;50358.97;;;-142.97;22.69
8451;BME280;4262;50.980;13.892;2023-02-04T07:37:38;50374.56;;;-142.97;22.97
8451;BME280;4262;50.980;13.892;2023-02-04T07:40:06;50333.63;;;-142.97;22.76
8451;BME280;4262;50.980;13.892;2023-02-04T07:42:33;50351.19;;;-142.97;23.42
8451;BME280;4262;50.980;13.892;2023-02-04T07:45:08;50343.38;;;-142.97;22.64
8451;BME280;4262;50.980;13.892;2023-02-04T07:47:36;50343.38;;;-142.97;22.62
8451;BME280;4262;50.980;13.892;2023-02-04T07:50:04;50358.97;;;-142.97;22.42
8451;BME280;4262;50.980;13.892;2023-02-04T07:52:32;50351.19;;;-142.97;22.26
8451;BME280;4262;50.980;13.892;2023-02-04T07:55:00;50335.59;;;-142.97;22.25
8451;BME280;4262;50.980;13.892;2023-02-04T07:57:28;50335.59;;;-142.97;22.50
8451;BME280;4262;50.980;13.892;2023-02-04T07:59:55;50316.09;;;-142.97;21.75
8451;BME280;4262;50.980;13.892;2023-02-04T08:02:22;50349.22;;;-142.97;21.77
8451;BME280;4262;50.980;13.892;2023-02-04T08:04:49;50333.63;;;-142.97;22.55
8451;BME280;4262;50.980;13.892;2023-02-04T08:07:17;50364.81;;;-142.97;22.61
8451;BME280;4262;50.980;13.892;2023-02-04T08:09:44;50327.78;;;-142.97;23.21
8451;BME280;4262;50.980;13.892;2023-02-04T08:12:12;50327.78;;;-142.97;23.78
8451;BME280;4262;50.980;13.892;2023-02-04T08:14:39;50355.09;;;-142.97;23.01
8451;BME280;4262;50.980;13.892;2023-02-04T08:17:07;50337.53;;;-142.97;22.41
8451;BME280;4262;50.980;13.892;2023-02-04T08:19:34;50335.59;;;-142.97;22.40
8451;BME280;4262;50.980;13.892;2023-02-04T08:22:01;50331.69;;;-142.97;22.46
8451;BME280;4262;50.980;13.892;2023-02-04T08:24:27;50327.78;;;-142.97;22.33
8451;BME280;4262;50.980;13.892;2023-02-04T08:26:54;50339.47;;;-142.97;21.73
8451;BME280;4262;50.980;13.892;2023-02-04T08:29:24;50335.59;;;-142.97;22.24
8451;BME280;4262;50.980;13.892;2023-02-04T08:31:51;50357.03;;;-142.97;22.27
8451;BME280;4262;50.980;13.892;2023-02-04T08:34:18;50321.94;;;-142.97;21.82
8451;BME280;4262;50.980;13.892;2023-02-04T08:36:44;50347.28;;;-142.97;22.27
8451;BME280;4262;50.980;13.892;2023-02-04T08:39:11;50314.13;;;-142.97;22.68
8451;BME280;4262;50.980;13.892;2023-02-04T08:41:38;50312.19;;;-142.97;21.61
8451;BME280;4262;50.980;13.892;2023-02-04T08:44:05;50335.59;;;-142.97;22.06
8451;BME280;4262;50.980;13.892;2023-02-04T08:46:33;50318.03;;;-142.97;22.03
8451;BME280;4262;50.980;13.892;2023-02-04T08:49:01;50333.63;;;-142.97;22.55
8451;BME280;4262;50.980;13.892;2023-02-04T08:51:30;50312.19;;;-142.97;22.67
8451;BME280;4262;50.980;13.892;2023-02-04T08:53:56;50323.88;;;-142.97;22.09
8451;BME280;4262;50.980;13.892;2023-02-04T08:56:23;50304.38;;;-142.97;21.87
8451;BME280;4262;50.980;13.892;2023-02-04T08:58:51;50349.22;;;-142.97;22.60
8451;BME280;4262;50.980;13.892;2023-02-04T09:01:18;50331.69;;;-142.97;22.45
8451;BME280;4262;50.980;13.892;2023-02-04T09:03:46;50323.88;;;-142.97;23.34
8451;BME280;4262;50.980;13.892;2023-02-04T09:06:15;50335.59;;;-142.97;22.52
8451;BME280;4262;50.980;13.892;2023-02-04T09:08:41;50320.00;;;-142.97;22.78
8451;BME280;4262;50.980;13.892;2023-02-04T09:11:08;50321.94;;;-142.97;22.16
8451;BME280;4262;50.980;13.892;2023-02-04T09:13:37;50320.00;;;-142.97;22.32
8451;BME280;4262;50.980;13.892;2023-02-04T09:16:04;50331.69;;;-142.97;21.73
8451;BME280;4262;50.980;13.892;2023-02-04T09:18:32;50296.59;;;-142.97;23.28
8451;BME280;4262;50.980;13.892;2023-02-04T09:21:02;50329.72;;;-142.97;22.61
8451;BME280;4262;50.980;13.892;2023-02-04T09:23:29;50329.72;;;-142.97;22.26
8451;BME280;4262;50.980;13.892;2023-02-04T09:25:56;50316.09;;;-142.97;22.08
8451;BME280;4262;50.980;13.892;2023-02-04T09:28:24;50306.34;;;-142.97;22.00
8451;BME280;4262;50.980;13.892;2023-02-04T09:30:51;50310.25;;;-142.97;21.85
8451;BME280;4262;50.980;13.892;2023-02-04T09:33:18;50327.78;;;-142.97;22.23
8451;BME280;4262;50.980;13.892;2023-02-04T09:35:45;50310.25;;;-142.97;23.25
8451;BME280;4262;50.980;13.892;2023-02-04T09:38:13;50321.94;;;-142.97;22.21
8451;BME280;4262;50.980;13.892;2023-02-04T09:40:41;50327.78;;;-142.97;21.58
8451;BME280;4262;50.980;13.892;2023-02-04T09:43:10;50310.25;;;-142.97;22.11
8451;BME280;4262;50.980;13.892;2023-02-04T09:45:40;50298.53;;;-142.97;21.68
8451;BME280;4262;50.980;13.892;2023-02-04T09:48:10;50310.25;;;-142.97;22.17
8451;BME280;4262;50.980;13.892;2023-02-04T09:50:38;50318.03;;;-142.97;21.93
8451;BME280;4262;50.980;13.892;2023-02-04T09:53:06;50316.09;;;-142.97;22.11
8451;BME280;4262;50.980;13.892;2023-02-04T09:55:39;50312.19;;;-142.97;21.68
8451;BME280;4262;50.980;13.892;2023-02-04T09:58:12;50290.75;;;-142.97;22.46
8451;BME280;4262;50.980;13.892;2023-02-04T10:00:40;50314.13;;;-142.97;22.55
8451;BME280;4262;50.980;13.892;2023-02-04T10:03:13;50312.19;;;-142.97;21.70
8451;BME280;4262;50.980;13.892;2023-02-04T10:05:40;50277.09;;;-142.97;21.81
8451;BME280;4262;50.980;13.892;2023-02-04T10:08:11;50318.03;;;-142.97;21.70
8451;BME280;4262;50.980;13.892;2023-02-04T10:10:41;50310.25;;;-142.97;23.06
8451;BME280;4262;50.980;13.892;2023-02-04T10:13:13;50275.16;;;-142.97;22.42
8451;BME280;4262;50.980;13.892;2023-02-04T10:15:42;50321.94;;;-142.97;22.11
8451;BME280;4262;50.980;13.892;2023-02-04T10:18:12;50286.84;;;-142.97;22.11
8451;BME280;4262;50.980;13.892;2023-02-04T10:20:42;50320.00;;;-142.97;22.16
8451;BME280;4262;50.980;13.892;2023-02-04T10:23:09;50296.59;;;-142.97;21.68
8451;BME280;4262;50.980;13.892;2023-02-04T10:25:36;50238.09;;;-142.97;21.75
8451;BME280;4262;50.980;13.892;2023-02-04T10:28:05;50286.84;;;-142.97;21.57
8451;BME280;4262;50.980;13.892;2023-02-04T10:30:38;50286.84;;;-142.97;21.93
8451;BME280;4262;50.980;13.892;2023-02-04T10:33:14;50321.94;;;-142.97;22.50
8451;BME280;4262;50.980;13.892;2023-02-04T10:35:45;50302.44;;;-142.97;22.08
8451;BME280;4262;50.980;13.892;2023-02-04T10:38:12;50296.59;;;-142.97;22.33
8451;BME280;4262;50.980;13.892;2023-02-04T10:40:39;50304.38;;;-142.97;23.40
8451;BME280;4262;50.980;13.892;2023-02-04T10:43:09;50306.34;;;-142.97;22.45
8451;BME280;4262;50.980;13.892;2023-02-04T10:45:36;50277.09;;;-142.97;23.05
8451;BME280;4262;50.980;13.892;2023-02-04T10:48:05;50316.09;;;-142.97;22.22
8451;BME280;4262;50.980;13.892;2023-02-04T10:50:32;50318.03;;;-142.97;21.61
8451;BME280;4262;50.980;13.892;2023-02-04T10:53:00;50321.94;;;-142.97;21.46
8451;BME280;4262;50.980;13.892;2023-02-04T10:55:42;50302.44;;;-142.97;21.51
8451;BME280;4262;50.980;13.892;2023-02-04T10:58:16;50327.78;;;-142.97;21.41
8451;BME280;4262;50.980;13.892;2023-02-04T11:00:43;50302.44;;;-142.97;20.91
8451;BME280;4262;50.980;13.892;2023-02-04T11:03:13;50318.03;;;-142.97;21.22
8451;BME280;4262;50.980;13.892;2023-02-04T11:05:41;50314.13;;;-142.97;21.13
8451;BME280;4262;50.980;13.892;2023-02-04T11:08:19;50320.00;;;-142.97;22.58
8451;BME280;4262;50.980;13.892;2023-02-04T11:10:49;50314.13;;;-142.97;22.73
8451;BME280;4262;50.980;13.892;2023-02-04T11:13:23;50304.38;;;-142.97;22.28
8451;BME280;4262;50.980;13.892;2023-02-04T11:18:28;50304.38;;;-142.97;22.89
8451;BME280;4262;50.980;13.892;2023-02-04T11:20:58;50296.59;;;-142.97;21.75
8451;BME280;4262;50.980;13.892;2023-02-04T11:23:33;50312.19;;;-142.97;22.02
8451;BME280;4262;50.980;13.892;2023-02-04T11:26:05;50080.19;;;-142.97;21.55
8451;BME280;4262;50.980;13.892;2023-02-04T11:28:48;50259.56;;;-142.97;20.91
8451;BME280;4262;50.980;13.892;2023-02-04T11:31:39;50226.41;;;-142.97;21.24
8451;BME280;4262;50.980;13.892;2023-02-04T11:34:10;50292.69;;;-142.97;21.10
8451;BME280;4262;50.980;13.892;2023-02-04T11:39:38;50302.44;;;-142.97;20.59
8451;BME280;4262;50.980;13.892;2023-02-04T11:42:17;50314.13;;;-142.97;20.86
8451;BME280;4262;50.980;13.892;2023-02-04T11:44:54;50288.78;;;-142.97;21.08
8451;BME280;4262;50.980;13.892;2023-02-04T11:47:25;50136.72;;;-142.97;20.78
8451;BME280;4262;50.980;13.892;2023-02-04T11:49:56;50306.34;;;-142.97;20.44
8451;BME280;4262;50.980;13.892;2023-02-04T11:52:25;50263.44;;;-142.97;20.50
8451;BME280;4262;50.980;13.892;2023-02-04T11:54:53;50185.47;;;-142.97;20.91
8451;BME280;4262;50.980;13.892;2023-02-04T11:57:19;50310.25;;;-142.97;21.50
8451;BME280;4262;50.980;13.892;2023-02-04T11:59:46;50331.69;;;-142.97;22.11
8451;BME280;4262;50.980;13.892;2023-02-04T12:02:16;50306.34;;;-142.97;21.10
8451;BME280;4262;50.980;13.892;2023-02-04T12:04:50;50259.56;;;-142.97;21.08
8451;BME280;4262;50.980;13.892;2023-02-04T12:07:22;50247.84;;;-142.97;21.16
8451;BME280;4262;50.980;13.892;2023-02-04T12:09:50;50298.53;;;-142.97;20.86
8451;BME280;4262;50.980;13.892;2023-02-04T12:12:22;50292.69;;;-142.97;21.95
8451;BME280;4262;50.980;13.892;2023-02-04T12:14:56;50286.84;;;-142.97;22.06
8451;BME280;4262;50.980;13.892;2023-02-04T12:17:24;50329.72;;;-142.97;21.59
8451;BME280;4262;50.980;13.892;2023-02-04T12:19:50;50306.34;;;-142.97;21.70
8451;BME280;4262;50.980;13.892;2023-02-04T12:22:17;50286.84;;;-142.97;21.35
8451;BME280;4262;50.980;13.892;2023-02-04T12:24:44;50314.13;;;-142.97;21.02
8451;BME280;4262;50.980;13.892;2023-02-04T12:27:10;50308.28;;;-142.97;20.72
8451;BME280;4262;50.980;13.892;2023-02-04T12:29:37;50331.69;;;-142.97;20.15
8451;BME280;4262;50.980;13.892;2023-02-04T12:32:04;50312.19;;;-142.97;20.47
8451;BME280;4262;50.980;13.892;2023-02-04T12:34:32;50337.53;;;-142.97;20.60
8451;BME280;4262;50.980;13.892;2023-02-04T12:36:59;50331.69;;;-142.97;21.26
8451;BME280;4262;50.980;13.892;2023-02-04T12:39:26;50353.13;;;-142.97;21.39
8451;BME280;4262;50.980;13.892;2023-02-04T12:41:54;50292.69;;;-142.97;21.59
8451;BME280;4262;50.980;13.892;2023-02-04T12:44:20;50306.34;;;-142.97;20.89
8451;BME280;4262;50.980;13.892;2023-02-04T12:46:47;50306.34;;;-142.97;21.09
8451;BME280;4262;50.980;13.892;2023-02-04T12:49:15;50288.78;;;-142.97;21.01
8451;BME280;4262;50.980;13.892;2023-02-04T12:51:45;50300.50;;;-142.97;20.83
8451;BME280;4262;50.980;13.892;2023-02-04T12:54:11;50314.13;;;-142.97;21.29
8451;BME280;4262;50.980;13.892;2023-02-04T12:56:38;50292.69;;;-142.97;20.79
8451;BME280;4262;50.980;13.892;2023-02-04T12:59:05;50107.47;;;-142.97;20.62
8451;BME280;4262;50.980;13.892;2023-02-04T13:01:32;50095.78;;;-142.97;19.86
8451;BME280;4262;50.980;13.892;2023-02-04T13:03:59;50279.03;;;-142.97;19.75
8451;BME280;4262;50.980;13.892;2023-02-04T13:06:27;50253.69;;;-142.97;19.51
8451;BME280;4262;50.980;13.892;2023-02-04T13:08:56;50281.00;;;-142.97;19.14
8451;BME280;4262;50.980;13.892;2023-02-04T13:11:23;50306.34;;;-142.97;21.67
8451;BME280;4262;50.980;13.892;2023-02-04T13:13:50;50224.47;;;-142.97;22.07
8451;BME280;4262;50.980;13.892;2023-02-04T13:16:16;50294.63;;;-142.97;21.99
8451;BME280;4262;50.980;13.892;2023-02-04T13:18:45;50111.38;;;-142.97;22.15
8451;BME280;4262;50.980;13.892;2023-02-04T13:21:11;50251.75;;;-142.97;21.24
8451;BME280;4262;50.980;13.892;2023-02-04T13:23:38;50121.13;;;-142.97;20.83
8451;BME280;4262;50.980;13.892;2023-02-04T13:26:06;50257.59;;;-142.97;20.45
8451;BME280;4262;50.980;13.892;2023-02-04T13:28:34;50162.06;;;-142.97;20.21
8451;BME280;4262;50.980;13.892;2023-02-04T13:31:01;50292.69;;;-142.97;20.86
8451;BME280;4262;50.980;13.892;2023-02-04T13:33:28;50208.84;;;-142.97;21.82
8451;BME280;4262;50.980;13.892;2023-02-04T13:35:56;50238.09;;;-142.97;20.86
8451;BME280;4262;50.980;13.892;2023-02-04T13:38:23;50247.84;;;-142.97;20.35
8451;BME280;4262;50.980;13.892;2023-02-04T13:40:50;50296.59;;;-142.97;20.54
8451;BME280;4262;50.980;13.892;2023-02-04T13:43:18;50273.19;;;-142.97;20.47
8451;BME280;4262;50.980;13.892;2023-02-04T13:45:45;50282.94;;;-142.97;21.66
8451;BME280;4262;50.980;13.892;2023-02-04T13:48:13;50206.91;;;-142.97;21.43
8451;BME280;4262;50.980;13.892;2023-02-04T13:50:40;50164.03;;;-142.97;20.82
8451;BME280;4262;50.980;13.892;2023-02-04T13:53:08;50136.72;;;-142.97;19.48
8451;BME280;4262;50.980;13.892;2023-02-04T13:55:34;50195.22;;;-142.97;19.56
8451;BME280;4262;50.980;13.892;2023-02-04T13:58:01;50185.47;;;-142.97;19.17
8451;BME280;4262;50.980;13.892;2023-02-04T14:00:29;50193.25;;;-142.97;20.09
8451;BME280;4262;50.980;13.892;2023-02-04T14:02:56;50290.75;;;-142.97;19.41
8451;BME280;4262;50.980;13.892;2023-02-04T14:05:22;50284.91;;;-142.97;19.42
8451;BME280;4262;50.980;13.892;2023-02-04T14:07:51;50259.56;;;-142.97;19.55
8451;BME280;4262;50.980;13.892;2023-02-04T14:10:17;50290.75;;;-142.97;19.98
8451;BME280;4262;50.980;13.892;2023-02-04T14:12:47;50294.63;;;-142.97;20.46
8451;BME280;4262;50.980;13.892;2023-02-04T14:15:14;50321.94;;;-142.97;19.79
8451;BME280;4262;50.980;13.892;2023-02-04T14:17:42;50298.53;;;-142.97;19.76
8451;BME280;4262;50.980;13.892;2023-02-04T14:20:11;50284.91;;;-142.97;19.79
8451;BME280;4262;50.980;13.892;2023-02-04T14:22:38;50333.63;;;-142.97;20.45
8451;BME280;4262;50.980;13.892;2023-02-04T14:25:05;50312.19;;;-142.97;20.44
8451;BME280;4262;50.980;13.892;2023-02-04T14:27:32;50331.69;;;-142.97;21.87
8451;BME280;4262;50.980;13.892;2023-02-04T14:29:59;50314.13;;;-142.97;22.50
8451;BME280;4262;50.980;13.892;2023-02-04T14:32:26;50339.47;;;-142.97;23.17
8451;BME280;4262;50.980;13.892;2023-02-04T14:34:54;50335.59;;;-142.97;22.86
8451;BME280;4262;50.980;13.892;2023-02-04T14:37:21;50312.19;;;-142.97;22.76
8451;BME280;4262;50.980;13.892;2023-02-04T14:39:51;50314.13;;;-142.97;22.06
8451;BME280;4262;50.980;13.892;2023-02-04T14:42:18;50316.09;;;-142.97;21.83
8451;BME280;4262;50.980;13.892;2023-02-04T14:44:45;50310.25;;;-142.97;21.47
8451;BME280;4262;50.980;13.892;2023-02-04T14:47:11;50320.00;;;-142.97;21.55
8451;BME280;4262;50.980;13.892;2023-02-04T14:49:38;50316.09;;;-142.97;21.38
8451;BME280;4262;50.980;13.892;2023-02-04T14:52:07;50325.84;;;-142.97;21.24
8451;BME280;4262;50.980;13.892;2023-02-04T14:54:35;50298.53;;;-142.97;21.80
8451;BME280;4262;50.980;13.892;2023-02-04T14:57:02;50308.28;;;-142.97;21.07
8451;BME280;4262;50.980;13.892;2023-02-04T14:59:31;50318.03;;;-142.97;20.89
8451;BME280;4262;50.980;13.892;2023-02-04T15:01:57;50310.25;;;-142.97;20.57
8451;BME280;4262;50.980;13.892;2023-02-04T15:04:24;50323.88;;;-142.97;20.60
8451;BME280;4262;50.980;13.892;2023-02-04T15:06:52;50329.72;;;-142.97;20.77
8451;BME280;4262;50.980;13.892;2023-02-04T15:09:21;50314.13;;;-142.97;20.41
8451;BME280;4262;50.980;13.892;2023-02-04T15:11:48;50304.38;;;-142.97;20.14
8451;BME280;4262;50.980;13.892;2023-02-04T15:14:14;50263.44;;;-142.97;20.22
8451;BME280;4262;50.980;13.892;2023-02-04T15:16:41;50306.34;;;-142.97;19.89
8451;BME280;4262;50.980;13.892;2023-02-04T15:19:10;50308.28;;;-142.97;20.14
8451;BME280;4262;50.980;13.892;2023-02-04T15:21:37;50318.03;;;-142.97;20.30
8451;BME280;4262;50.980;13.892;2023-02-04T15:24:04;50306.34;;;-142.97;20.21
8451;BME280;4262;50.980;13.892;2023-02-04T15:26:33;50302.44;;;-142.97;20.32
8451;BME280;4262;50.980;13.892;2023-02-04T15:28:59;50306.34;;;-142.97;20.23
8451;BME280;4262;50.980;13.892;2023-02-04T15:31:26;50300.50;;;-142.97;20.59
8451;BME280;4262;50.980;13.892;2023-02-04T15:33:53;50310.25;;;-142.97;20.42
8451;BME280;4262;50.980;13.892;2023-02-04T15:36:20;50333.63;;;-142.97;20.73
8451;BME280;4262;50.980;13.892;2023-02-04T15:38:47;50331.69;;;-142.97;20.87
8451;BME280;4262;50.980;13.892;2023-02-04T15:41:14;50304.38;;;-142.97;20.91
8451;BME280;4262;50.980;13.892;2023-02-04T15:43:42;50337.53;;;-142.97;20.75
8451;BME280;4262;50.980;13.892;2023-02-04T15:46:09;50323.88;;;-142.97;20.76
8451;BME280;4262;50.980;13.892;2023-02-04T15:48:36;50306.34;;;-142.97;20.43
8451;BME280;4262;50.980;13.892;2023-02-04T15:51:04;50302.44;;;-142.97;20.88
8451;BME280;4262;50.980;13.892;2023-02-04T15:53:31;50300.50;;;-142.97;20.62
8451;BME280;4262;50.980;13.892;2023-02-04T15:55:59;50325.84;;;-142.97;21.22
8451;BME280;4262;50.980;13.892;2023-02-04T15:58:25;50306.34;;;-142.97;20.83
8451;BME280;4262;50.980;13.892;2023-02-04T16:00:53;50321.94;;;-142.97;20.97
8451;BME280;4262;50.980;13.892;2023-02-04T16:03:20;50310.25;;;-142.97;20.85
8451;BME280;4262;50.980;13.892;2023-02-04T16:05:47;50333.63;;;-142.97;20.52
8451;BME280;4262;50.980;13.892;2023-02-04T16:08:15;50329.72;;;-142.97;20.50
8451;BME280;4262;50.980;13.892;2023-02-04T16:10:43;50312.19;;;-142.97;20.35
8451;BME280;4262;50.980;13.892;2023-02-04T16:13:10;50320.00;;;-142.97;20.27
8451;BME280;4262;50.980;13.892;2023-02-04T16:15:38;50333.63;;;-142.97;20.03
8451;BME280;4262;50.980;13.892;2023-02-04T16:18:07;50327.78;;;-142.97;20.06
8451;BME280;4262;50.980;13.892;2023-02-04T16:20:34;50279.03;;;-142.97;20.04
8451;BME280;4262;50.980;13.892;2023-02-04T16:23:02;50335.59;;;-142.97;19.88
8451;BME280;4262;50.980;13.892;2023-02-04T16:25:31;50306.34;;;-142.97;19.79
8451;BME280;4262;50.980;13.892;2023-02-04T16:27:58;50314.13;;;-142.97;19.97
8451;BME280;4262;50.980;13.892;2023-02-04T16:30:26;50290.75;;;-142.97;19.98
8451;BME280;4262;50.980;13.892;2023-02-04T16:32:53;50318.03;;;-142.97;19.78
8451;BME280;4262;50.980;13.892;2023-02-04T16:35:21;50362.88;;;-142.97;19.79
8451;BME280;4262;50.980;13.892;2023-02-04T16:37:48;50351.19;;;-142.97;19.87
8451;BME280;4262;50.980;13.892;2023-02-04T16:40:14;50310.25;;;-142.97;19.90
8451;BME280;4262;50.980;13.892;2023-02-04T16:42:42;50333.63;;;-142.97;20.02
8451;BME280;4262;50.980;13.892;2023-02-04T16:45:10;50304.38;;;-142.97;19.74
8451;BME280;4262;50.980;13.892;2023-02-04T16:47:38;50298.53;;;-142.97;19.86
8451;BME280;4262;50.980;13.892;2023-02-04T16:50:05;50314.13;;;-142.97;19.73
8451;BME280;4262;50.980;13.892;2023-02-04T16:52:34;50298.53;;;-142.97;20.29
8451;BME280;4262;50.980;13.892;2023-02-04T16:55:00;50263.44;;;-142.97;20.08
8451;BME280;4262;50.980;13.892;2023-02-04T16:57:27;50300.50;;;-142.97;19.96
8451;BME280;4262;50.980;13.892;2023-02-04T16:59:54;50327.78;;;-142.97;20.17
8451;BME280;4262;50.980;13.892;2023-02-04T17:02:21;50327.78;;;-142.97;20.21
8451;BME280;4262;50.980;13.892;2023-02-04T17:04:47;50329.72;;;-142.97;20.15
8451;BME280;4262;50.980;13.892;2023-02-04T17:07:14;50312.19;;;-142.97;20.43
8451;BME280;4262;50.980;13.892;2023-02-04T17:09:44;50310.25;;;-142.97;20.42
8451;BME280;4262;50.980;13.892;2023-02-04T17:12:10;50310.25;;;-142.97;20.50
8451;BME280;4262;50.980;13.892;2023-02-04T17:14:37;50320.00;;;-142.97;20.45
8451;BME280;4262;50.980;13.892;2023-02-04T17:17:05;50300.50;;;-142.97;20.29
8451;BME280;4262;50.980;13.892;2023-02-04T17:19:33;50314.13;;;-142.97;20.57
8451;BME280;4262;50.980;13.892;2023-02-04T17:22:01;50325.84;;;-142.97;20.76
8451;BME280;4262;50.980;13.892;2023-02-04T17:24:28;50318.03;;;-142.97;21.50
8451;BME280;4262;50.980;13.892;2023-02-04T17:26:56;50304.38;;;-142.97;21.70
8451;BME280;4262;50.980;13.892;2023-02-04T17:29:26;50318.03;;;-142.97;21.80
8451;BME280;4262;50.980;13.892;2023-02-04T17:31:52;50292.69;;;-142.97;22.15
8451;BME280;4262;50.980;13.892;2023-02-04T17:34:20;50312.19;;;-142.97;21.80
8451;BME280;4262;50.980;13.892;2023-02-04T17:36:48;50314.13;;;-142.97;21.32
8451;BME280;4262;50.980;13.892;2023-02-04T17:39:15;50337.53;;;-142.97;21.61
8451;BME280;4262;50.980;13.892;2023-02-04T17:41:42;50321.94;;;-142.97;21.34
8451;BME280;4262;50.980;13.892;2023-02-04T17:44:10;50281.00;;;-142.97;21.66
8451;BME280;4262;50.980;13.892;2023-02-04T17:46:41;50321.94;;;-142.97;21.65
8451;BME280;4262;50.980;13.892;2023-02-04T17:49:08;50331.69;;;-142.97;21.86
8451;BME280;4262;50.980;13.892;2023-02-04T17:51:36;50329.72;;;-142.97;21.56
8451;BME280;4262;50.980;13.892;2023-02-04T17:54:03;50298.53;;;-142.97;21.02
8451;BME280;4262;50.980;13.892;2023-02-04T17:56:30;50302.44;;;-142.97;21.20
8451;BME280;4262;50.980;13.892;2023-02-04T17:58:56;50314.13;;;-142.97;20.91
8451;BME280;4262;50.980;13.892;2023-02-04T18:01:25;50304.38;;;-142.97;20.53